Main page
METAR-TAF:

METAR-TAF

Airports :

Rasht Airport

Rasht, Iran

latitude: 37-12N, longitude: 049-38E, elevation: -7 m

Current weather observation

The report was made 35 minutes ago, at 03:00 UTC
Calm wind
Temperature 26°C
Humidity 79%
Pressure 1008 hPa
Visibility 10 km or more
Few clouds at a height of 1500 ft

METAR: OIGG 210300Z 00000KT 9999 FEW015 26/22 Q1008

Time: 08:05 (03:35 UTC)

Forecast

The report was made 1 hour and 25 minutes ago, at 02:10 UTC
Forecast valid from 21 at 03 UTC to 21 at 12 UTC
Wind 7 kt from the East/Northeast
Visibility: 8000 m
Few clouds at a height of 2000 ft
Temporary
from 21 at 06 UTC to 21 at 12 UTC
Wind 12 kt from the North
Few clouds at a height of 2500 ft, Towering cumulus.

TAF: OIGG 210210Z 2103/2112 06007KT 8000 FEW020 TEMPO 2106/2112 35012KT FEW025TCU

Weather observations and forecasts of more than 4000 airports (METAR and TAF reports).

The available stations are represented by yellow and red dots on the map.

Hover mouse over dot to see the name of the station.

Then click to see weather observations and forecasts.

To change the map : click on the green buttons with a black cross to zoom in, on the green button with a dash to zoom out, or on the green arrows for adjacent maps.


METAR-TAF: